首页
METAR-TAF:

METAR-TAF

机场 :

卡迪夫機場

加的夫, 威尔士

纬度: 51-24N, 经度: 003-21W, 海拔: 67米

当前天气观测

该预报发布于30分钟前的21:20 UTC
风速10节,风向西转西北
温度 7°C
湿度 81%
气压 1003 hPa
能见度10公里或以上
散云层高于2400英尺

METAR: EGFF 122120Z AUTO 29010KT 9999 SCT024 07/04 Q1003

时间: 21:50 (21:50 UTC)

预报

该预报发布于4小时和47分钟前的17:03 UTC
预报有效从12日的 18点(UTC)到 13日的 18点(UTC)
风速10节,风向西转西北
能见度10公里或以上
散云层高于2000英尺
几率 40% :
短暂存在
从 12日的 18点(UTC)到 13日的 02点(UTC)
能見度: 7000
阵雨
几率 30% :
短暂存在
从 13日的 08点(UTC)到 13日的 15点(UTC)
能見度: 7000
阵雨
成为
从 13日的 09点(UTC)到 13日的 12点(UTC)
风速5节,风向南转西南
成为
从 13日的 15点(UTC)到 13日的 18点(UTC)
风速12节,风向东南
短暂存在
从 13日的 16点(UTC)到 13日的 18点(UTC)
能見度: 8000
多云层高于1400英尺
几率 30% :
短暂存在
从 13日的 16点(UTC)到 13日的 18点(UTC)
风速15节,风向南转南东,有时为25节阵风
能見度: 4000
多云层高于800英尺
大阵雨

TAF: EGFF 121703Z 1218/1318 30010KT 9999 SCT020 PROB40 TEMPO 1218/1302 7000 SHRA PROB30 TEMPO 1308/1315 7000 SHRA BECMG 1309/1312 20005KT BECMG 1315/1318 14012KT TEMPO 1316/1318 8000 RA BKN014 PROB30 TEMPO 1316/1318 15015G25KT 4000 +SHRA BKN008

超过4000个机场的气象观测和天气预报(METAR&TAF报告)。

可查询的气象台以黄色和红色小点在地图上表示。

将鼠标移到小点上方,可查看气象台名称。

然后点击查看天气观测和预报。

如需切换地图:点击带黑十字的绿色按钮放大地图;点击带横线的绿色按钮缩小地图;或者点击绿色箭头查看邻近地区的地图。


METAR-TAF: